PWSweather.com
Personal Weather Stations
Station Observations
KMNMADEL2
Andys Live Weather Stations, Madelia, MN 56062

Andys Live Weather StationsMadelia, MN 56062

Lat: 44.04636, Lon: -94.4163437

Elevation: 1006

Station Type: Wireless Davis Instruments Vantage Pro2 Plus

http://www.madeliasliveweather.com/

Latest ConditionsUpdated 8:10:02 AM CDT Saturday, Nov 1, 2014
Currently Today's Max Today's Min Today's Average
Temperature 24.8°F-4.0°C 24.8°F-4.0°C 20.5°F-6.4°C 22.2°F-5.4°C
Dew Point 19.8°F-6.8°C 19.8°F-6.8°C 15.5°F-9.2°C 17.4°F-8.1°C
Winds 3.0 mph S4.8 kmh S 6.0 mph SSE9.7 kmh SSE - 1.4 mph 2.3 kmh
Wind Gusts 10.0 mph16.1 kmh 10.0 mph16.1 kmh - -
Humidity 81% 84% 79% 81%
Pressure 30.45 in1031.2 mb 30.51 in1033.2 mb 30.45 in1031.2 mb -
Hour Temp Dew Point Humidity Winds Wind Gusts Pressure Precip Precip Rate Daily Precip Total
08:10 AM 24.8°F-4.0°C 19.8°F-6.8°C 81% 3.0 mph S4.8 kmh S 10.0 mph16.1 kmh 30.45 in1031.2 mb 0.00 in0.0 mm 0.00 in/hr0.0 mm/hr 0.00 in0.0 mm
08:05 AM 24.6°F-4.1°C 19.6°F-6.9°C 81% 3.0 mph SSE4.8 kmh SSE 9.0 mph14.5 kmh 30.45 in1031.2 mb 0.00 in0.0 mm 0.00 in/hr0.0 mm/hr 0.00 in0.0 mm
08:00 AM 24.5°F-4.2°C 19.5°F-6.9°C 81% 5.0 mph S8.0 kmh S 5.0 mph8.0 kmh 30.45 in1031.2 mb 0.00 in0.0 mm 0.00 in/hr0.0 mm/hr 0.00 in0.0 mm
07:55 AM 24.3°F-4.3°C 19.3°F-7.1°C 81% 3.0 mph SE4.8 kmh SE 9.0 mph14.5 kmh 30.45 in1031.2 mb 0.00 in0.0 mm 0.00 in/hr0.0 mm/hr 0.00 in0.0 mm
07:50 AM 24.2°F-4.3°C 19.2°F-7.1°C 81% 2.0 mph SE3.2 kmh SE 9.0 mph14.5 kmh 30.45 in1031.2 mb 0.00 in0.0 mm 0.00 in/hr0.0 mm/hr 0.00 in0.0 mm
07:45 AM 24.0°F-4.4°C 19.0°F-7.2°C 81% 4.0 mph S6.4 kmh S 9.0 mph14.5 kmh 30.45 in1031.2 mb 0.00 in0.0 mm 0.00 in/hr0.0 mm/hr 0.00 in0.0 mm
07:40 AM 23.9°F-4.5°C 18.9°F-7.3°C 81% 2.0 mph SSE3.2 kmh SSE 8.0 mph12.9 kmh 30.45 in1031.2 mb 0.00 in0.0 mm 0.00 in/hr0.0 mm/hr 0.00 in0.0 mm
07:35 AM 23.8°F-4.6°C 18.8°F-7.3°C 81% 4.0 mph SSE6.4 kmh SSE 8.0 mph12.9 kmh 30.45 in1031.2 mb 0.00 in0.0 mm 0.00 in/hr0.0 mm/hr 0.00 in0.0 mm
07:30 AM 23.7°F-4.6°C 18.7°F-7.4°C 81% 4.0 mph SSE6.4 kmh SSE 5.0 mph8.0 kmh 30.45 in1031.2 mb 0.00 in0.0 mm 0.00 in/hr0.0 mm/hr 0.00 in0.0 mm
07:25 AM 23.5°F-4.7°C 18.8°F-7.3°C 82% 4.0 mph SSE6.4 kmh SSE 10.0 mph16.1 kmh 30.45 in1031.2 mb 0.00 in0.0 mm 0.00 in/hr0.0 mm/hr 0.00 in0.0 mm
07:20 AM 23.2°F-4.9°C 18.3°F-7.6°C 81% 6.0 mph SSE9.7 kmh SSE 10.0 mph16.1 kmh 30.46 in1031.5 mb 0.00 in0.0 mm 0.00 in/hr0.0 mm/hr 0.00 in0.0 mm
07:15 AM 23.0°F-5.0°C 18.3°F-7.6°C 82% 4.0 mph S6.4 kmh S 10.0 mph16.1 kmh 30.46 in1031.5 mb 0.00 in0.0 mm 0.00 in/hr0.0 mm/hr 0.00 in0.0 mm
07:10 AM 22.7°F-5.2°C 18.0°F-7.8°C 82% 3.0 mph SE4.8 kmh SE 10.0 mph16.1 kmh 30.46 in1031.5 mb 0.00 in0.0 mm 0.00 in/hr0.0 mm/hr 0.00 in0.0 mm
07:05 AM 22.5°F-5.3°C 17.9°F-7.8°C 82% 3.0 mph SE4.8 kmh SE 10.0 mph16.1 kmh 30.46 in1031.5 mb 0.00 in0.0 mm 0.00 in/hr0.0 mm/hr 0.00 in0.0 mm
07:00 AM 22.2°F-5.4°C 17.8°F-7.9°C 83% 2.0 mph SE3.2 kmh SE 6.0 mph9.7 kmh 30.47 in1031.8 mb 0.00 in0.0 mm 0.00 in/hr0.0 mm/hr 0.00 in0.0 mm
06:55 AM 22.0°F-5.6°C 17.4°F-8.1°C 82% 4.0 mph SSE6.4 kmh SSE 8.0 mph12.9 kmh 30.47 in1031.8 mb 0.00 in0.0 mm 0.00 in/hr0.0 mm/hr 0.00 in0.0 mm
06:50 AM 21.9°F-5.6°C 17.3°F-8.2°C 82% 3.0 mph ESE4.8 kmh ESE 8.0 mph12.9 kmh 30.46 in1031.5 mb 0.00 in0.0 mm 0.00 in/hr0.0 mm/hr 0.00 in0.0 mm
06:45 AM 21.7°F-5.7°C 17.1°F-8.3°C 82% 5.0 mph ESE8.0 kmh ESE 8.0 mph12.9 kmh 30.46 in1031.5 mb 0.00 in0.0 mm 0.00 in/hr0.0 mm/hr 0.00 in0.0 mm
06:40 AM 21.6°F-5.8°C 17.0°F-8.3°C 82% 2.0 mph SE3.2 kmh SE 8.0 mph12.9 kmh 30.46 in1031.5 mb 0.00 in0.0 mm 0.00 in/hr0.0 mm/hr 0.00 in0.0 mm
06:35 AM 21.6°F-5.8°C 17.0°F-8.3°C 82% 4.0 mph SE6.4 kmh SE 8.0 mph12.9 kmh 30.46 in1031.5 mb 0.00 in0.0 mm 0.00 in/hr0.0 mm/hr 0.00 in0.0 mm
06:30 AM 21.4°F-5.9°C 16.8°F-8.4°C 82% 3.0 mph SSE4.8 kmh SSE 5.0 mph8.0 kmh 30.46 in1031.5 mb 0.00 in0.0 mm 0.00 in/hr0.0 mm/hr 0.00 in0.0 mm
06:25 AM 21.6°F-5.8°C 17.0°F-8.3°C 82% 3.0 mph SE4.8 kmh SE 7.0 mph11.3 kmh 30.46 in1031.5 mb 0.00 in0.0 mm 0.00 in/hr0.0 mm/hr 0.00 in0.0 mm
06:20 AM 21.7°F-5.7°C 16.8°F-8.4°C 81% 3.0 mph SE4.8 kmh SE 7.0 mph11.3 kmh 30.47 in1031.8 mb 0.00 in0.0 mm 0.00 in/hr0.0 mm/hr 0.00 in0.0 mm
06:15 AM 21.7°F-5.7°C 17.1°F-8.3°C 82% 2.0 mph SSE3.2 kmh SSE 7.0 mph11.3 kmh 30.47 in1031.8 mb 0.00 in0.0 mm 0.00 in/hr0.0 mm/hr 0.00 in0.0 mm
06:10 AM 21.6°F-5.8°C 17.0°F-8.3°C 82% 3.0 mph SSE4.8 kmh SSE 7.0 mph11.3 kmh 30.47 in1031.8 mb 0.00 in0.0 mm 0.00 in/hr0.0 mm/hr 0.00 in0.0 mm
06:05 AM 21.6°F-5.8°C 17.0°F-8.3°C 82% 2.0 mph SE3.2 kmh SE 7.0 mph11.3 kmh 30.46 in1031.5 mb 0.00 in0.0 mm 0.00 in/hr0.0 mm/hr 0.00 in0.0 mm
06:00 AM 21.4°F-5.9°C 16.8°F-8.4°C 82% 5.0 mph SSE8.0 kmh SSE 5.0 mph8.0 kmh 30.47 in1031.8 mb 0.00 in0.0 mm 0.00 in/hr0.0 mm/hr 0.00 in0.0 mm
05:55 AM 21.4°F-5.9°C 17.1°F-8.3°C 83% 1.0 mph SSE1.6 kmh SSE 7.0 mph11.3 kmh 30.47 in1031.8 mb 0.00 in0.0 mm 0.00 in/hr0.0 mm/hr 0.00 in0.0 mm
05:50 AM 21.1°F-6.1°C 16.8°F-8.4°C 83% 1.0 mph SSE1.6 kmh SSE 7.0 mph11.3 kmh 30.47 in1031.8 mb 0.00 in0.0 mm 0.00 in/hr0.0 mm/hr 0.00 in0.0 mm
05:45 AM 20.8°F-6.2°C 16.5°F-8.6°C 83% 1.0 mph SSE1.6 kmh SSE 7.0 mph11.3 kmh 30.46 in1031.5 mb 0.00 in0.0 mm 0.00 in/hr0.0 mm/hr 0.00 in0.0 mm
05:40 AM 20.5°F-6.4°C 16.2°F-8.8°C 83% 3.0 mph SE4.8 kmh SE 5.0 mph8.0 kmh 30.47 in1031.8 mb 0.00 in0.0 mm 0.00 in/hr0.0 mm/hr 0.00 in0.0 mm
05:35 AM 20.5°F-6.4°C 16.2°F-8.8°C 83% 2.0 mph SE3.2 kmh SE 5.0 mph8.0 kmh 30.47 in1031.8 mb 0.00 in0.0 mm 0.00 in/hr0.0 mm/hr 0.00 in0.0 mm
05:30 AM 20.6°F-6.3°C 16.3°F-8.7°C 83% 2.0 mph SE3.2 kmh SE 5.0 mph8.0 kmh 30.47 in1031.8 mb 0.00 in0.0 mm 0.00 in/hr0.0 mm/hr 0.00 in0.0 mm
05:25 AM 20.7°F-6.3°C 16.6°F-8.6°C 84% 1.0 mph SE1.6 kmh SE 5.0 mph8.0 kmh 30.47 in1031.8 mb 0.00 in0.0 mm 0.00 in/hr0.0 mm/hr 0.00 in0.0 mm
05:20 AM 20.8°F-6.2°C 16.5°F-8.6°C 83% 2.0 mph SE3.2 kmh SE 5.0 mph8.0 kmh 30.47 in1031.8 mb 0.00 in0.0 mm 0.00 in/hr0.0 mm/hr 0.00 in0.0 mm
05:15 AM 20.5°F-6.4°C 15.6°F-9.1°C 81% 1.0 mph S1.6 kmh S 3.0 mph4.8 kmh 30.47 in1031.8 mb 0.00 in0.0 mm 0.00 in/hr0.0 mm/hr 0.00 in0.0 mm
05:10 AM 20.6°F-6.3°C 15.7°F-9.1°C 81% 1.0 mph S1.6 kmh S 3.0 mph4.8 kmh 30.47 in1031.8 mb 0.00 in0.0 mm 0.00 in/hr0.0 mm/hr 0.00 in0.0 mm
05:05 AM 20.9°F-6.2°C 16.3°F-8.7°C 82% 1.0 mph S1.6 kmh S 3.0 mph4.8 kmh 30.47 in1031.8 mb 0.00 in0.0 mm 0.00 in/hr0.0 mm/hr 0.00 in0.0 mm
05:00 AM 21.1°F-6.1°C 16.8°F-8.4°C 83% 2.0 mph S3.2 kmh S 2.0 mph3.2 kmh 30.47 in1031.8 mb 0.00 in0.0 mm 0.00 in/hr0.0 mm/hr 0.00 in0.0 mm
04:55 AM 21.1°F-6.1°C 16.5°F-8.6°C 82% Calm Calm 5.0 mph8.0 kmh 30.48 in1032.2 mb 0.00 in0.0 mm 0.00 in/hr0.0 mm/hr 0.00 in0.0 mm
04:50 AM 21.0°F-6.1°C 15.5°F-9.2°C 79% Calm Calm 5.0 mph8.0 kmh 30.48 in1032.2 mb 0.00 in0.0 mm 0.00 in/hr0.0 mm/hr 0.00 in0.0 mm
04:45 AM 21.3°F-5.9°C 16.1°F-8.8°C 80% 3.0 mph S4.8 kmh S 5.0 mph8.0 kmh 30.47 in1031.8 mb 0.00 in0.0 mm 0.00 in/hr0.0 mm/hr 0.00 in0.0 mm
04:40 AM 21.4°F-5.9°C 16.2°F-8.8°C 80% 1.0 mph S1.6 kmh S 5.0 mph8.0 kmh 30.47 in1031.8 mb 0.00 in0.0 mm 0.00 in/hr0.0 mm/hr 0.00 in0.0 mm
04:35 AM 21.4°F-5.9°C 16.5°F-8.6°C 81% 2.0 mph S3.2 kmh S 5.0 mph8.0 kmh 30.47 in1031.8 mb 0.00 in0.0 mm 0.00 in/hr0.0 mm/hr 0.00 in0.0 mm
04:30 AM 21.4°F-5.9°C 16.2°F-8.8°C 80% 1.0 mph S1.6 kmh S 4.0 mph6.4 kmh 30.48 in1032.2 mb 0.00 in0.0 mm 0.00 in/hr0.0 mm/hr 0.00 in0.0 mm
04:25 AM 21.5°F-5.8°C 16.0°F-8.9°C 79% 1.0 mph S1.6 kmh S 4.0 mph6.4 kmh 30.48 in1032.2 mb 0.00 in0.0 mm 0.00 in/hr0.0 mm/hr 0.00 in0.0 mm
04:20 AM 21.6°F-5.8°C 16.1°F-8.8°C 79% Calm Calm 4.0 mph6.4 kmh 30.48 in1032.2 mb 0.00 in0.0 mm 0.00 in/hr0.0 mm/hr 0.00 in0.0 mm
04:15 AM 21.8°F-5.7°C 16.6°F-8.6°C 80% Calm Calm 4.0 mph6.4 kmh 30.48 in1032.2 mb 0.00 in0.0 mm 0.00 in/hr0.0 mm/hr 0.00 in0.0 mm
04:10 AM 21.9°F-5.6°C 16.7°F-8.5°C 80% Calm Calm 4.0 mph6.4 kmh 30.48 in1032.2 mb 0.00 in0.0 mm 0.00 in/hr0.0 mm/hr 0.00 in0.0 mm
04:05 AM 22.1°F-5.5°C 17.2°F-8.2°C 81% Calm Calm 3.0 mph4.8 kmh 30.48 in1032.2 mb 0.00 in0.0 mm 0.00 in/hr0.0 mm/hr 0.00 in0.0 mm
04:00 AM 22.1°F-5.5°C 16.9°F-8.4°C 80% 1.0 mph SE1.6 kmh SE 3.0 mph4.8 kmh 30.48 in1032.2 mb 0.00 in0.0 mm 0.00 in/hr0.0 mm/hr 0.00 in0.0 mm
03:55 AM 22.2°F-5.4°C 16.7°F-8.5°C 79% Calm Calm 3.0 mph4.8 kmh 30.48 in1032.2 mb 0.00 in0.0 mm 0.00 in/hr0.0 mm/hr 0.00 in0.0 mm
03:50 AM 22.3°F-5.4°C 17.1°F-8.3°C 80% Calm Calm 2.0 mph3.2 kmh 30.48 in1032.2 mb 0.00 in0.0 mm 0.00 in/hr0.0 mm/hr 0.00 in0.0 mm
03:45 AM 22.5°F-5.3°C 17.3°F-8.2°C 80% Calm Calm 2.0 mph3.2 kmh 30.48 in1032.2 mb 0.00 in0.0 mm 0.00 in/hr0.0 mm/hr 0.00 in0.0 mm
03:40 AM 22.6°F-5.2°C 17.7°F-7.9°C 81% Calm Calm 2.0 mph3.2 kmh 30.49 in1032.5 mb 0.00 in0.0 mm 0.00 in/hr0.0 mm/hr 0.00 in0.0 mm
03:35 AM 22.7°F-5.2°C 18.0°F-7.8°C 82% Calm Calm -- 30.48 in1032.2 mb 0.00 in0.0 mm 0.00 in/hr0.0 mm/hr 0.00 in0.0 mm
03:30 AM 22.6°F-5.2°C 17.1°F-8.3°C 79% Calm Calm -- 30.48 in1032.2 mb 0.00 in0.0 mm 0.00 in/hr0.0 mm/hr 0.00 in0.0 mm
03:25 AM 22.7°F-5.2°C 17.5°F-8.1°C 80% 1.0 mph SE1.6 kmh SE 3.0 mph4.8 kmh 30.49 in1032.5 mb 0.00 in0.0 mm 0.00 in/hr0.0 mm/hr 0.00 in0.0 mm
03:20 AM 22.8°F-5.1°C 17.6°F-8.0°C 80% 2.0 mph SE3.2 kmh SE 3.0 mph4.8 kmh 30.48 in1032.2 mb 0.00 in0.0 mm 0.00 in/hr0.0 mm/hr 0.00 in0.0 mm
03:15 AM 22.9°F-5.1°C 18.0°F-7.8°C 81% Calm Calm 3.0 mph4.8 kmh 30.49 in1032.5 mb 0.00 in0.0 mm 0.00 in/hr0.0 mm/hr 0.00 in0.0 mm
03:10 AM 23.0°F-5.0°C 18.6°F-7.4°C 83% 2.0 mph SE3.2 kmh SE 3.0 mph4.8 kmh 30.49 in1032.5 mb 0.00 in0.0 mm 0.00 in/hr0.0 mm/hr 0.00 in0.0 mm
03:05 AM 23.0°F-5.0°C 18.3°F-7.6°C 82% Calm Calm 3.0 mph4.8 kmh 30.49 in1032.5 mb 0.00 in0.0 mm 0.00 in/hr0.0 mm/hr 0.00 in0.0 mm
03:00 AM 22.5°F-5.3°C 17.0°F-8.3°C 79% 1.0 mph SE1.6 kmh SE 2.0 mph3.2 kmh 30.49 in1032.5 mb 0.00 in0.0 mm 0.00 in/hr0.0 mm/hr 0.00 in0.0 mm
02:55 AM 22.6°F-5.2°C 17.4°F-8.1°C 80% 1.0 mph SE1.6 kmh SE 3.0 mph4.8 kmh 30.49 in1032.5 mb 0.00 in0.0 mm 0.00 in/hr0.0 mm/hr 0.00 in0.0 mm
02:50 AM 22.8°F-5.1°C 17.6°F-8.0°C 80% Calm Calm 3.0 mph4.8 kmh 30.49 in1032.5 mb 0.00 in0.0 mm 0.00 in/hr0.0 mm/hr 0.00 in0.0 mm
02:45 AM 23.0°F-5.0°C 18.1°F-7.7°C 81% 2.0 mph SE3.2 kmh SE 3.0 mph4.8 kmh 30.49 in1032.5 mb 0.00 in0.0 mm 0.00 in/hr0.0 mm/hr 0.00 in0.0 mm
02:40 AM 23.4°F-4.8°C 19.0°F-7.2°C 83% Calm Calm -- 30.49 in1032.5 mb 0.00 in0.0 mm 0.00 in/hr0.0 mm/hr 0.00 in0.0 mm
02:35 AM 23.3°F-4.8°C 18.1°F-7.7°C 80% Calm Calm -- 30.50 in1032.8 mb 0.00 in0.0 mm 0.00 in/hr0.0 mm/hr 0.00 in0.0 mm
02:30 AM 23.2°F-4.9°C 17.7°F-7.9°C 79% Calm Calm -- 30.50 in1032.8 mb 0.00 in0.0 mm 0.00 in/hr0.0 mm/hr 0.00 in0.0 mm
02:25 AM 23.2°F-4.9°C 17.7°F-7.9°C 79% Calm Calm 4.0 mph6.4 kmh 30.50 in1032.8 mb 0.00 in0.0 mm 0.00 in/hr0.0 mm/hr 0.00 in0.0 mm
02:20 AM 23.1°F-4.9°C 17.9°F-7.8°C 80% Calm Calm 4.0 mph6.4 kmh 30.50 in1032.8 mb 0.00 in0.0 mm 0.00 in/hr0.0 mm/hr 0.00 in0.0 mm
02:15 AM 23.0°F-5.0°C 17.5°F-8.1°C 79% Calm Calm 4.0 mph6.4 kmh 30.50 in1032.8 mb 0.00 in0.0 mm 0.00 in/hr0.0 mm/hr 0.00 in0.0 mm
02:10 AM 22.9°F-5.1°C 17.7°F-7.9°C 80% Calm Calm 4.0 mph6.4 kmh 30.50 in1032.8 mb 0.00 in0.0 mm 0.00 in/hr0.0 mm/hr 0.00 in0.0 mm
02:05 AM 22.7°F-5.2°C 17.2°F-8.2°C 79% 4.0 mph SE6.4 kmh SE 4.0 mph6.4 kmh 30.50 in1032.8 mb 0.00 in0.0 mm 0.00 in/hr0.0 mm/hr 0.00 in0.0 mm
02:00 AM 22.7°F-5.2°C 17.5°F-8.1°C 80% Calm Calm 1.0 mph1.6 kmh 30.50 in1032.8 mb 0.00 in0.0 mm 0.00 in/hr0.0 mm/hr 0.00 in0.0 mm
01:55 AM 22.7°F-5.2°C 17.5°F-8.1°C 80% 1.0 mph SE1.6 kmh SE 5.0 mph8.0 kmh 30.50 in1032.8 mb 0.00 in0.0 mm 0.00 in/hr0.0 mm/hr 0.00 in0.0 mm
01:50 AM 22.6°F-5.2°C 17.7°F-7.9°C 81% 2.0 mph SSE3.2 kmh SSE 5.0 mph8.0 kmh 30.50 in1032.8 mb 0.00 in0.0 mm 0.00 in/hr0.0 mm/hr 0.00 in0.0 mm
01:45 AM 22.4°F-5.3°C 18.0°F-7.8°C 83% Calm Calm 5.0 mph8.0 kmh 30.50 in1032.8 mb 0.00 in0.0 mm 0.00 in/hr0.0 mm/hr 0.00 in0.0 mm
01:40 AM 22.1°F-5.5°C 17.7°F-7.9°C 83% 1.0 mph SSE1.6 kmh SSE 5.0 mph8.0 kmh 30.50 in1032.8 mb 0.00 in0.0 mm 0.00 in/hr0.0 mm/hr 0.00 in0.0 mm
01:35 AM 21.7°F-5.7°C 17.1°F-8.3°C 82% 1.0 mph SSE1.6 kmh SSE 5.0 mph8.0 kmh 30.51 in1033.2 mb 0.00 in0.0 mm 0.00 in/hr0.0 mm/hr 0.00 in0.0 mm
01:30 AM 21.4°F-5.9°C 16.8°F-8.4°C 82% 3.0 mph SSE4.8 kmh SSE 5.0 mph8.0 kmh 30.51 in1033.2 mb 0.00 in0.0 mm 0.00 in/hr0.0 mm/hr 0.00 in0.0 mm
01:25 AM 21.4°F-5.9°C 16.8°F-8.4°C 82% 1.0 mph N1.6 kmh N 3.0 mph4.8 kmh 30.50 in1032.8 mb 0.00 in0.0 mm 0.00 in/hr0.0 mm/hr 0.00 in0.0 mm
01:20 AM 21.4°F-5.9°C 17.1°F-8.3°C 83% Calm Calm 2.0 mph3.2 kmh 30.50 in1032.8 mb 0.00 in0.0 mm 0.00 in/hr0.0 mm/hr 0.00 in0.0 mm
01:15 AM 21.6°F-5.8°C 17.3°F-8.2°C 83% Calm Calm 2.0 mph3.2 kmh 30.50 in1032.8 mb 0.00 in0.0 mm 0.00 in/hr0.0 mm/hr 0.00 in0.0 mm
01:10 AM 21.7°F-5.7°C 17.3°F-8.2°C 83% Calm Calm -- 30.50 in1032.8 mb 0.00 in0.0 mm 0.00 in/hr0.0 mm/hr 0.00 in0.0 mm
01:05 AM 21.7°F-5.7°C 17.1°F-8.3°C 82% Calm Calm -- 30.50 in1032.8 mb 0.00 in0.0 mm 0.00 in/hr0.0 mm/hr 0.00 in0.0 mm
01:00 AM 21.7°F-5.7°C 16.8°F-8.4°C 81% Calm Calm -- 30.50 in1032.8 mb 0.00 in0.0 mm 0.00 in/hr0.0 mm/hr 0.00 in0.0 mm
12:55 AM 21.8°F-5.7°C 16.9°F-8.4°C 81% Calm Calm 2.0 mph3.2 kmh 30.50 in1032.8 mb 0.00 in0.0 mm 0.00 in/hr0.0 mm/hr 0.00 in0.0 mm
12:50 AM 21.8°F-5.7°C 16.9°F-8.4°C 81% Calm Calm 2.0 mph3.2 kmh 30.51 in1033.2 mb 0.00 in0.0 mm 0.00 in/hr0.0 mm/hr 0.00 in0.0 mm
12:45 AM 21.9°F-5.6°C 17.3°F-8.2°C 82% Calm Calm 2.0 mph3.2 kmh 30.50 in1032.8 mb 0.00 in0.0 mm 0.00 in/hr0.0 mm/hr 0.00 in0.0 mm
12:40 AM 22.0°F-5.6°C 17.4°F-8.1°C 82% Calm Calm 2.0 mph3.2 kmh 30.50 in1032.8 mb 0.00 in0.0 mm 0.00 in/hr0.0 mm/hr 0.00 in0.0 mm
12:35 AM 22.1°F-5.5°C 17.7°F-7.9°C 83% Calm Calm 2.0 mph3.2 kmh 30.50 in1032.8 mb 0.00 in0.0 mm 0.00 in/hr0.0 mm/hr 0.00 in0.0 mm
12:30 AM 22.0°F-5.6°C 17.4°F-8.1°C 82% 1.0 mph N1.6 kmh N 2.0 mph3.2 kmh 30.50 in1032.8 mb 0.00 in0.0 mm 0.00 in/hr0.0 mm/hr 0.00 in0.0 mm
12:25 AM 22.1°F-5.5°C 17.2°F-8.2°C 81% Calm Calm 1.0 mph1.6 kmh 30.51 in1033.2 mb 0.00 in0.0 mm 0.00 in/hr0.0 mm/hr 0.00 in0.0 mm
12:20 AM 22.3°F-5.4°C 17.1°F-8.3°C 80% Calm Calm 1.0 mph1.6 kmh 30.51 in1033.2 mb 0.00 in0.0 mm 0.00 in/hr0.0 mm/hr 0.00 in0.0 mm
12:15 AM 22.6°F-5.2°C 17.4°F-8.1°C 80% Calm Calm -- 30.51 in1033.2 mb 0.00 in0.0 mm 0.00 in/hr0.0 mm/hr 0.00 in0.0 mm
12:10 AM 22.7°F-5.2°C 17.8°F-7.9°C 81% Calm Calm -- 30.51 in1033.2 mb 0.00 in0.0 mm 0.00 in/hr0.0 mm/hr 0.00 in0.0 mm
12:05 AM 22.8°F-5.1°C 18.1°F-7.7°C 82% Calm Calm -- 30.51 in1033.2 mb 0.00 in0.0 mm 0.00 in/hr0.0 mm/hr 0.00 in0.0 mm
12:00 AM 23.0°F-5.0°C 18.6°F-7.4°C 83% Calm Calm -- 30.51 in1033.2 mb 0.00 in0.0 mm 0.00 in/hr0.0 mm/hr 0.00 in0.0 mm